sensor_id;sensor_type;location;lat;lon;timestamp;pressure;altitude;pressure_sealevel;temperature;humidity
68169;BME280;54981;50.206;15.978;2022-10-28T00:01:13;99903.00;;;9.07;100.00
68169;BME280;54981;50.206;15.978;2022-10-28T00:03:44;99895.78;;;8.84;100.00
68169;BME280;54981;50.206;15.978;2022-10-28T00:06:15;99901.19;;;8.81;100.00
68169;BME280;54981;50.206;15.978;2022-10-28T00:08:41;99900.22;;;8.84;100.00
68169;BME280;54981;50.206;15.978;2022-10-28T00:11:32;99892.28;;;8.82;100.00
68169;BME280;54981;50.206;15.978;2022-10-28T00:14:00;99903.81;;;8.83;100.00
68169;BME280;54981;50.206;15.978;2022-10-28T00:16:31;99906.53;;;8.80;100.00
68169;BME280;54981;50.206;15.978;2022-10-28T00:18:57;99905.72;;;8.78;100.00
68169;BME280;54981;50.206;15.978;2022-10-28T00:21:26;99904.81;;;8.79;100.00
68169;BME280;54981;50.206;15.978;2022-10-28T00:23:52;99902.16;;;8.79;100.00
68169;BME280;54981;50.206;15.978;2022-10-28T00:26:20;99902.34;;;8.72;100.00
68169;BME280;54981;50.206;15.978;2022-10-28T00:28:49;99899.75;;;8.71;100.00
68169;BME280;54981;50.206;15.978;2022-10-28T00:31:16;99898.69;;;8.77;100.00
68169;BME280;54981;50.206;15.978;2022-10-28T00:33:42;99900.41;;;8.78;100.00
68169;BME280;54981;50.206;15.978;2022-10-28T00:38:43;99893.19;;;8.83;100.00
68169;BME280;54981;50.206;15.978;2022-10-28T00:41:11;99893.94;;;8.86;100.00
68169;BME280;54981;50.206;15.978;2022-10-28T00:43:45;99890.34;;;8.87;100.00
68169;BME280;54981;50.206;15.978;2022-10-28T00:48:51;99876.28;;;8.85;100.00
68169;BME280;54981;50.206;15.978;2022-10-28T00:51:20;99884.41;;;8.81;100.00
68169;BME280;54981;50.206;15.978;2022-10-28T00:53:49;99873.78;;;8.81;100.00
68169;BME280;54981;50.206;15.978;2022-10-28T00:56:16;99873.06;;;8.76;100.00
68169;BME280;54981;50.206;15.978;2022-10-28T00:58:42;99871.25;;;8.76;100.00
68169;BME280;54981;50.206;15.978;2022-10-28T01:01:09;99867.78;;;8.74;100.00
68169;BME280;54981;50.206;15.978;2022-10-28T01:03:35;99867.13;;;8.67;100.00
68169;BME280;54981;50.206;15.978;2022-10-28T01:06:01;99870.59;;;8.69;100.00
68169;BME280;54981;50.206;15.978;2022-10-28T01:08:26;99868.88;;;8.68;100.00
68169;BME280;54981;50.206;15.978;2022-10-28T01:11:04;99870.47;;;8.72;100.00
68169;BME280;54981;50.206;15.978;2022-10-28T01:13:59;99869.63;;;8.72;100.00
68169;BME280;54981;50.206;15.978;2022-10-28T01:22:48;99864.41;;;8.69;100.00
68169;BME280;54981;50.206;15.978;2022-10-28T01:37:07;99873.44;;;8.33;100.00
68169;BME280;54981;50.206;15.978;2022-10-28T01:39:49;99861.75;;;8.39;100.00
68169;BME280;54981;50.206;15.978;2022-10-28T01:45:06;99850.19;;;8.43;100.00
68169;BME280;54981;50.206;15.978;2022-10-28T01:47:39;99850.28;;;8.39;100.00
68169;BME280;54981;50.206;15.978;2022-10-28T01:50:27;99858.09;;;8.45;100.00
68169;BME280;54981;50.206;15.978;2022-10-28T01:52:57;99856.34;;;8.44;100.00
68169;BME280;54981;50.206;15.978;2022-10-28T01:55:27;99852.88;;;8.42;100.00
68169;BME280;54981;50.206;15.978;2022-10-28T01:57:58;99855.59;;;8.39;100.00
68169;BME280;54981;50.206;15.978;2022-10-28T02:00:25;99859.28;;;8.35;100.00
68169;BME280;54981;50.206;15.978;2022-10-28T02:02:51;99856.78;;;8.30;100.00
68169;BME280;54981;50.206;15.978;2022-10-28T02:05:43;99864.53;;;8.36;100.00
68169;BME280;54981;50.206;15.978;2022-10-28T02:08:21;99858.09;;;8.45;100.00
68169;BME280;54981;50.206;15.978;2022-10-28T02:11:02;99859.91;;;8.44;100.00
68169;BME280;54981;50.206;15.978;2022-10-28T02:13:45;99855.44;;;8.45;100.00
68169;BME280;54981;50.206;15.978;2022-10-28T02:19:59;99844.72;;;8.48;100.00
68169;BME280;54981;50.206;15.978;2022-10-28T02:22:49;99839.25;;;8.54;100.00
68169;BME280;54981;50.206;15.978;2022-10-28T02:25:21;99841.97;;;8.51;100.00
68169;BME280;54981;50.206;15.978;2022-10-28T02:28:03;99843.44;;;8.31;100.00
68169;BME280;54981;50.206;15.978;2022-10-28T02:30:36;99829.44;;;8.26;100.00
68169;BME280;54981;50.206;15.978;2022-10-28T02:33:10;99829.34;;;8.29;100.00
68169;BME280;54981;50.206;15.978;2022-10-28T02:35:50;99827.53;;;8.31;100.00
68169;BME280;54981;50.206;15.978;2022-10-28T02:38:24;99832.75;;;8.35;100.00
68169;BME280;54981;50.206;15.978;2022-10-28T02:40:53;99826.28;;;8.43;100.00
68169;BME280;54981;50.206;15.978;2022-10-28T02:43:22;99820.84;;;8.48;100.00
68169;BME280;54981;50.206;15.978;2022-10-28T02:45:53;99823.69;;;8.42;100.00
68169;BME280;54981;50.206;15.978;2022-10-28T02:48:35;99817.59;;;8.38;100.00
68169;BME280;54981;50.206;15.978;2022-10-28T02:51:12;99813.06;;;8.42;100.00
68169;BME280;54981;50.206;15.978;2022-10-28T02:53:59;99807.72;;;8.43;100.00
68169;BME280;54981;50.206;15.978;2022-10-28T02:56:27;99808.59;;;8.44;100.00
68169;BME280;54981;50.206;15.978;2022-10-28T02:58:53;99814.00;;;8.41;100.00
68169;BME280;54981;50.206;15.978;2022-10-28T03:01:19;99821.09;;;8.40;100.00
68169;BME280;54981;50.206;15.978;2022-10-28T03:03:44;99828.19;;;8.40;100.00
68169;BME280;54981;50.206;15.978;2022-10-28T03:06:10;99835.13;;;8.44;100.00
68169;BME280;54981;50.206;15.978;2022-10-28T03:08:36;99827.38;;;8.36;100.00
68169;BME280;54981;50.206;15.978;2022-10-28T03:11:01;99837.03;;;8.39;100.00
68169;BME280;54981;50.206;15.978;2022-10-28T03:13:26;99833.53;;;8.37;100.00
68169;BME280;54981;50.206;15.978;2022-10-28T03:15:52;99835.41;;;8.35;100.00
68169;BME280;54981;50.206;15.978;2022-10-28T03:18:17;99838.84;;;8.37;100.00
68169;BME280;54981;50.206;15.978;2022-10-28T03:20:42;99838.66;;;8.44;100.00
68169;BME280;54981;50.206;15.978;2022-10-28T03:23:07;99828.06;;;8.44;100.00
68169;BME280;54981;50.206;15.978;2022-10-28T03:25:33;99833.25;;;8.47;100.00
68169;BME280;54981;50.206;15.978;2022-10-28T03:27:58;99834.16;;;8.46;100.00
68169;BME280;54981;50.206;15.978;2022-10-28T03:30:23;99827.16;;;8.44;100.00
68169;BME280;54981;50.206;15.978;2022-10-28T03:32:49;99822.13;;;8.35;100.00
68169;BME280;54981;50.206;15.978;2022-10-28T03:35:14;99823.97;;;8.32;100.00
68169;BME280;54981;50.206;15.978;2022-10-28T03:37:41;99823.03;;;8.33;100.00
68169;BME280;54981;50.206;15.978;2022-10-28T03:40:07;99823.97;;;8.32;100.00
68169;BME280;54981;50.206;15.978;2022-10-28T03:42:33;99819.56;;;8.31;100.00
68169;BME280;54981;50.206;15.978;2022-10-28T03:44:59;99822.22;;;8.31;100.00
68169;BME280;54981;50.206;15.978;2022-10-28T03:47:24;99817.97;;;8.26;100.00
68169;BME280;54981;50.206;15.978;2022-10-28T03:49:52;99824.25;;;8.23;100.00
68169;BME280;54981;50.206;15.978;2022-10-28T03:52:18;99823.44;;;8.21;100.00
68169;BME280;54981;50.206;15.978;2022-10-28T03:54:43;99825.22;;;8.21;100.00
68169;BME280;54981;50.206;15.978;2022-10-28T03:57:08;99821.63;;;8.22;100.00
68169;BME280;54981;50.206;15.978;2022-10-28T03:59:34;99826.06;;;8.21;100.00
68169;BME280;54981;50.206;15.978;2022-10-28T04:01:59;99835.03;;;8.17;100.00
68169;BME280;54981;50.206;15.978;2022-10-28T04:04:25;99828.91;;;8.15;100.00
68169;BME280;54981;50.206;15.978;2022-10-28T04:06:50;99821.88;;;8.14;100.00
68169;BME280;54981;50.206;15.978;2022-10-28T04:09:15;99816.56;;;8.14;100.00
68169;BME280;54981;50.206;15.978;2022-10-28T04:11:41;99819.25;;;8.13;100.00
68169;BME280;54981;50.206;15.978;2022-10-28T04:14:06;99823.78;;;8.10;100.00
68169;BME280;54981;50.206;15.978;2022-10-28T04:16:31;99816.81;;;8.06;100.00
68169;BME280;54981;50.206;15.978;2022-10-28T04:18:57;99810.72;;;8.03;100.00
68169;BME280;54981;50.206;15.978;2022-10-28T04:21:22;99808.06;;;8.03;100.00
68169;BME280;54981;50.206;15.978;2022-10-28T04:23:47;99821.53;;;7.97;100.00
68169;BME280;54981;50.206;15.978;2022-10-28T04:26:13;99816.84;;;8.05;100.00
68169;BME280;54981;50.206;15.978;2022-10-28T04:28:39;99823.25;;;7.98;100.00
68169;BME280;54981;50.206;15.978;2022-10-28T04:31:05;99825.00;;;7.99;100.00
68169;BME280;54981;50.206;15.978;2022-10-28T04:33:30;99823.47;;;7.92;100.00
68169;BME280;54981;50.206;15.978;2022-10-28T04:35:55;99816.28;;;7.94;100.00
68169;BME280;54981;50.206;15.978;2022-10-28T04:38:22;99819.88;;;7.93;100.00
68169;BME280;54981;50.206;15.978;2022-10-28T04:40:47;99821.69;;;7.90;100.00
68169;BME280;54981;50.206;15.978;2022-10-28T04:43:13;99828.22;;;7.79;100.00
68169;BME280;54981;50.206;15.978;2022-10-28T04:45:39;99815.03;;;7.77;100.00
68169;BME280;54981;50.206;15.978;2022-10-28T04:48:04;99807.00;;;7.80;100.00
68169;BME280;54981;50.206;15.978;2022-10-28T04:50:30;99802.63;;;7.79;100.00
68169;BME280;54981;50.206;15.978;2022-10-28T04:52:55;99802.66;;;7.78;100.00
68169;BME280;54981;50.206;15.978;2022-10-28T04:55:20;99801.84;;;7.74;100.00
68169;BME280;54981;50.206;15.978;2022-10-28T04:57:56;99795.66;;;7.75;100.00
68169;BME280;54981;50.206;15.978;2022-10-28T05:00:23;99804.16;;;7.86;100.00
68169;BME280;54981;50.206;15.978;2022-10-28T05:02:49;99797.09;;;7.85;100.00
68169;BME280;54981;50.206;15.978;2022-10-28T05:05:14;99803.22;;;7.89;100.00
68169;BME280;54981;50.206;15.978;2022-10-28T05:07:40;99807.94;;;8.07;100.00
68169;BME280;54981;50.206;15.978;2022-10-28T05:10:05;99806.78;;;8.16;100.00
68169;BME280;54981;50.206;15.978;2022-10-28T05:12:31;99812.28;;;8.10;100.00
68169;BME280;54981;50.206;15.978;2022-10-28T05:14:56;99801.06;;;8.00;100.00
68169;BME280;54981;50.206;15.978;2022-10-28T05:17:21;99795.72;;;8.02;100.00
68169;BME280;54981;50.206;15.978;2022-10-28T05:19:47;99797.41;;;8.04;100.00
68169;BME280;54981;50.206;15.978;2022-10-28T05:22:12;99800.84;;;8.08;100.00
68169;BME280;54981;50.206;15.978;2022-10-28T05:24:37;99798.00;;;8.14;100.00
68169;BME280;54981;50.206;15.978;2022-10-28T05:27:03;99791.91;;;8.67;100.00
68169;BME280;54981;50.206;15.978;2022-10-28T05:29:28;99799.50;;;8.78;100.00
68169;BME280;54981;50.206;15.978;2022-10-28T05:31:53;99792.97;;;8.88;100.00
68169;BME280;54981;50.206;15.978;2022-10-28T05:34:19;99802.31;;;9.00;100.00
68169;BME280;54981;50.206;15.978;2022-10-28T05:36:44;99806.41;;;9.08;100.00
68169;BME280;54981;50.206;15.978;2022-10-28T05:39:09;99807.25;;;9.10;100.00
68169;BME280;54981;50.206;15.978;2022-10-28T05:41:36;99811.22;;;8.97;100.00
68169;BME280;54981;50.206;15.978;2022-10-28T05:44:02;99809.63;;;8.93;100.00
68169;BME280;54981;50.206;15.978;2022-10-28T05:46:27;99816.47;;;9.00;100.00
68169;BME280;54981;50.206;15.978;2022-10-28T05:48:52;99812.03;;;8.99;100.00
68169;BME280;54981;50.206;15.978;2022-10-28T05:51:18;99813.13;;;8.93;100.00
68169;BME280;54981;50.206;15.978;2022-10-28T05:53:43;99812.38;;;8.90;100.00
68169;BME280;54981;50.206;15.978;2022-10-28T05:56:09;99808.13;;;8.84;100.00
68169;BME280;54981;50.206;15.978;2022-10-28T05:58:34;99810.22;;;8.74;100.00
68169;BME280;54981;50.206;15.978;2022-10-28T06:01:00;99801.66;;;8.66;100.00
68169;BME280;54981;50.206;15.978;2022-10-28T06:03:25;99809.00;;;8.58;100.00
68169;BME280;54981;50.206;15.978;2022-10-28T06:05:50;99812.56;;;8.59;100.00
68169;BME280;54981;50.206;15.978;2022-10-28T06:08:16;99807.28;;;8.57;100.00
68169;BME280;54981;50.206;15.978;2022-10-28T06:10:49;99813.72;;;8.77;100.00
68169;BME280;54981;50.206;15.978;2022-10-28T06:13:14;99813.72;;;8.77;100.00
68169;BME280;54981;50.206;15.978;2022-10-28T06:15:40;99812.44;;;8.88;100.00
68169;BME280;54981;50.206;15.978;2022-10-28T06:18:05;99823.34;;;9.06;100.00
68169;BME280;54981;50.206;15.978;2022-10-28T06:20:31;99821.38;;;9.11;100.00
68169;BME280;54981;50.206;15.978;2022-10-28T06:22:56;99819.69;;;9.08;100.00
68169;BME280;54981;50.206;15.978;2022-10-28T06:25:23;99824.19;;;9.06;100.00
68169;BME280;54981;50.206;15.978;2022-10-28T06:28:06;99815.00;;;9.16;100.00
68169;BME280;54981;50.206;15.978;2022-10-28T06:30:34;99815.19;;;9.35;100.00
68169;BME280;54981;50.206;15.978;2022-10-28T06:32:59;99812.28;;;9.67;100.00
68169;BME280;54981;50.206;15.978;2022-10-28T06:35:25;99820.84;;;9.75;100.00
68169;BME280;54981;50.206;15.978;2022-10-28T06:37:54;99815.81;;;9.91;100.00
68169;BME280;54981;50.206;15.978;2022-10-28T06:40:20;99809.06;;;10.06;100.00
68169;BME280;54981;50.206;15.978;2022-10-28T06:42:45;99814.94;;;10.14;100.00
68169;BME280;54981;50.206;15.978;2022-10-28T06:45:10;99821.34;;;10.32;100.00
68169;BME280;54981;50.206;15.978;2022-10-28T06:47:36;99825.81;;;10.53;100.00
68169;BME280;54981;50.206;15.978;2022-10-28T06:50:01;99830.84;;;10.61;100.00
68169;BME280;54981;50.206;15.978;2022-10-28T06:52:26;99832.13;;;10.73;100.00
68169;BME280;54981;50.206;15.978;2022-10-28T06:54:52;99831.31;;;10.93;100.00
68169;BME280;54981;50.206;15.978;2022-10-28T06:57:17;99824.69;;;11.01;100.00
68169;BME280;54981;50.206;15.978;2022-10-28T06:59:42;99823.25;;;11.15;100.00
68169;BME280;54981;50.206;15.978;2022-10-28T07:02:11;99835.09;;;11.28;100.00
68169;BME280;54981;50.206;15.978;2022-10-28T07:04:37;99845.56;;;11.33;100.00
68169;BME280;54981;50.206;15.978;2022-10-28T07:07:02;99845.06;;;11.45;100.00
68169;BME280;54981;50.206;15.978;2022-10-28T07:09:27;99844.72;;;11.52;100.00
68169;BME280;54981;50.206;15.978;2022-10-28T07:11:53;99853.16;;;11.62;100.00
68169;BME280;54981;50.206;15.978;2022-10-28T07:14:18;99846.31;;;11.76;100.00
68169;BME280;54981;50.206;15.978;2022-10-28T07:16:44;99846.75;;;11.87;100.00
68169;BME280;54981;50.206;15.978;2022-10-28T07:19:09;99850.94;;;11.92;100.00
68169;BME280;54981;50.206;15.978;2022-10-28T07:21:35;99852.16;;;12.04;100.00
68169;BME280;54981;50.206;15.978;2022-10-28T07:24:01;99856.38;;;12.10;100.00
68169;BME280;54981;50.206;15.978;2022-10-28T07:26:27;99848.00;;;12.18;100.00
68169;BME280;54981;50.206;15.978;2022-10-28T07:28:52;99842.44;;;12.22;100.00
68169;BME280;54981;50.206;15.978;2022-10-28T07:31:18;99841.50;;;12.23;100.00
68169;BME280;54981;50.206;15.978;2022-10-28T07:33:43;99835.78;;;12.31;100.00
68169;BME280;54981;50.206;15.978;2022-10-28T07:36:09;99824.88;;;12.35;100.00
68169;BME280;54981;50.206;15.978;2022-10-28T07:38:34;99830.06;;;12.39;100.00
68169;BME280;54981;50.206;15.978;2022-10-28T07:41:08;99831.94;;;12.55;100.00
68169;BME280;54981;50.206;15.978;2022-10-28T07:43:36;99845.22;;;12.57;100.00
68169;BME280;54981;50.206;15.978;2022-10-28T07:46:03;99842.31;;;12.62;100.00
68169;BME280;54981;50.206;15.978;2022-10-28T07:48:29;99847.22;;;12.71;100.00
68169;BME280;54981;50.206;15.978;2022-10-28T07:50:54;99834.19;;;12.82;100.00
68169;BME280;54981;50.206;15.978;2022-10-28T07:53:19;99839.16;;;12.90;100.00
68169;BME280;54981;50.206;15.978;2022-10-28T07:55:53;99834.03;;;13.03;100.00
68169;BME280;54981;50.206;15.978;2022-10-28T07:58:19;99836.66;;;13.04;100.00
68169;BME280;54981;50.206;15.978;2022-10-28T08:00:44;99834.53;;;13.11;100.00
68169;BME280;54981;50.206;15.978;2022-10-28T08:03:09;99833.41;;;13.15;100.00
68169;BME280;54981;50.206;15.978;2022-10-28T08:05:35;99843.03;;;13.19;100.00
68169;BME280;54981;50.206;15.978;2022-10-28T08:08:00;99845.09;;;13.31;100.00
68169;BME280;54981;50.206;15.978;2022-10-28T08:10:25;99848.00;;;13.44;100.00
68169;BME280;54981;50.206;15.978;2022-10-28T08:12:51;99840.19;;;13.57;100.00
68169;BME280;54981;50.206;15.978;2022-10-28T08:15:16;99843.25;;;13.67;100.00
68169;BME280;54981;50.206;15.978;2022-10-28T08:17:42;99840.59;;;13.82;100.00
68169;BME280;54981;50.206;15.978;2022-10-28T08:20:08;99848.06;;;13.93;100.00
68169;BME280;54981;50.206;15.978;2022-10-28T08:22:33;99838.16;;;14.11;100.00
68169;BME280;54981;50.206;15.978;2022-10-28T08:24:58;99842.56;;;14.28;100.00
68169;BME280;54981;50.206;15.978;2022-10-28T08:27:24;99844.03;;;14.49;100.00
68169;BME280;54981;50.206;15.978;2022-10-28T08:29:49;99843.63;;;14.73;100.00
68169;BME280;54981;50.206;15.978;2022-10-28T08:32:14;99848.53;;;14.97;100.00
68169;BME280;54981;50.206;15.978;2022-10-28T08:34:40;99845.16;;;15.23;100.00
68169;BME280;54981;50.206;15.978;2022-10-28T08:37:05;99849.09;;;15.32;100.00
68169;BME280;54981;50.206;15.978;2022-10-28T08:39:31;99846.94;;;15.53;100.00
68169;BME280;54981;50.206;15.978;2022-10-28T08:48:00;99847.28;;;15.91;100.00
68169;BME280;54981;50.206;15.978;2022-10-28T08:50:29;99841.34;;;16.01;98.95
68169;BME280;54981;50.206;15.978;2022-10-28T08:53:27;99852.38;;;16.10;97.73
68169;BME280;54981;50.206;15.978;2022-10-28T08:56:04;99855.63;;;16.30;95.65
68169;BME280;54981;50.206;15.978;2022-10-28T08:58:33;99859.63;;;16.37;94.80
68169;BME280;54981;50.206;15.978;2022-10-28T09:01:00;99852.69;;;16.47;95.30
68169;BME280;54981;50.206;15.978;2022-10-28T09:03:39;99849.81;;;16.50;94.22
68169;BME280;54981;50.206;15.978;2022-10-28T09:06:07;99855.03;;;16.39;93.31
68169;BME280;54981;50.206;15.978;2022-10-28T09:08:41;99847.78;;;16.54;94.16
68169;BME280;54981;50.206;15.978;2022-10-28T09:11:44;99829.59;;;16.72;93.59
68169;BME280;54981;50.206;15.978;2022-10-28T09:16:48;99824.78;;;16.77;93.17
68169;BME280;54981;50.206;15.978;2022-10-28T09:19:23;99826.56;;;16.91;90.32
68169;BME280;54981;50.206;15.978;2022-10-28T09:22:14;99825.59;;;16.92;90.30
68169;BME280;54981;50.206;15.978;2022-10-28T09:25:00;99822.69;;;16.95;90.60
68169;BME280;54981;50.206;15.978;2022-10-28T09:30:29;99833.41;;;17.22;88.61
68169;BME280;54981;50.206;15.978;2022-10-28T09:33:12;99843.53;;;17.18;88.41
68169;BME280;54981;50.206;15.978;2022-10-28T09:35:44;99848.16;;;17.16;89.05
68169;BME280;54981;50.206;15.978;2022-10-28T09:40:53;99864.84;;;17.21;89.24
68169;BME280;54981;50.206;15.978;2022-10-28T09:43:32;99849.06;;;17.42;86.92
68169;BME280;54981;50.206;15.978;2022-10-28T09:46:19;99845.47;;;17.16;86.78
68169;BME280;54981;50.206;15.978;2022-10-28T09:48:55;99832.06;;;17.42;87.38
68169;BME280;54981;50.206;15.978;2022-10-28T09:51:32;99839.38;;;17.53;86.93
68169;BME280;54981;50.206;15.978;2022-10-28T09:54:00;99839.91;;;17.45;86.07
68169;BME280;54981;50.206;15.978;2022-10-28T09:56:26;99846.44;;;17.81;86.16
68169;BME280;54981;50.206;15.978;2022-10-28T09:58:54;99846.97;;;17.86;85.28
68169;BME280;54981;50.206;15.978;2022-10-28T10:01:22;99838.56;;;17.91;84.20
68169;BME280;54981;50.206;15.978;2022-10-28T10:03:48;99840.16;;;18.19;83.06
68169;BME280;54981;50.206;15.978;2022-10-28T10:06:21;99840.72;;;17.98;84.07
68169;BME280;54981;50.206;15.978;2022-10-28T10:08:47;99832.50;;;17.87;83.40
68169;BME280;54981;50.206;15.978;2022-10-28T10:14:05;99832.22;;;18.41;82.58
68169;BME280;54981;50.206;15.978;2022-10-28T10:16:54;99832.72;;;18.59;81.38
68169;BME280;54981;50.206;15.978;2022-10-28T10:19:21;99828.44;;;18.68;79.17
68169;BME280;54981;50.206;15.978;2022-10-28T10:21:52;99836.47;;;18.93;80.69
68169;BME280;54981;50.206;15.978;2022-10-28T10:26:58;99835.06;;;18.88;78.87
68169;BME280;54981;50.206;15.978;2022-10-28T10:29:24;99831.50;;;18.76;79.05
68169;BME280;54981;50.206;15.978;2022-10-28T10:32:03;99840.50;;;18.75;78.89
68169;BME280;54981;50.206;15.978;2022-10-28T10:34:30;99841.66;;;18.60;78.02
68169;BME280;54981;50.206;15.978;2022-10-28T10:36:55;99836.47;;;18.93;79.99
68169;BME280;54981;50.206;15.978;2022-10-28T10:39:41;99829.63;;;19.01;77.72
68169;BME280;54981;50.206;15.978;2022-10-28T10:42:21;99826.50;;;19.18;77.95
68169;BME280;54981;50.206;15.978;2022-10-28T10:44:58;99820.47;;;19.14;76.71
68169;BME280;54981;50.206;15.978;2022-10-28T10:47:24;99823.34;;;19.24;76.75
68169;BME280;54981;50.206;15.978;2022-10-28T10:49:50;99833.16;;;19.25;76.30
68169;BME280;54981;50.206;15.978;2022-10-28T10:52:19;99830.19;;;19.17;76.41
68169;BME280;54981;50.206;15.978;2022-10-28T10:54:57;99826.75;;;19.26;76.26
68169;BME280;54981;50.206;15.978;2022-10-28T10:57:24;99826.50;;;19.18;76.73
68169;BME280;54981;50.206;15.978;2022-10-28T10:59:52;99813.03;;;19.29;75.54
68169;BME280;54981;50.206;15.978;2022-10-28T11:02:22;99815.78;;;19.52;76.82
68169;BME280;54981;50.206;15.978;2022-10-28T11:04:55;99813.09;;;19.52;76.05
68169;BME280;54981;50.206;15.978;2022-10-28T11:07:21;99820.97;;;19.66;75.20
68169;BME280;54981;50.206;15.978;2022-10-28T11:09:48;99821.03;;;19.77;74.37
68169;BME280;54981;50.206;15.978;2022-10-28T11:12:27;99814.13;;;20.07;74.22
68169;BME280;54981;50.206;15.978;2022-10-28T11:14:57;99811.91;;;20.01;72.91
68169;BME280;54981;50.206;15.978;2022-10-28T11:17:25;99813.13;;;19.74;75.31
68169;BME280;54981;50.206;15.978;2022-10-28T11:19:54;99805.97;;;19.62;75.65
68169;BME280;54981;50.206;15.978;2022-10-28T11:30:55;99803.44;;;19.83;73.70
68169;BME280;54981;50.206;15.978;2022-10-28T11:33:20;99793.75;;;19.92;73.41
68169;BME280;54981;50.206;15.978;2022-10-28T11:36:19;99784.66;;;19.70;73.83
68169;BME280;54981;50.206;15.978;2022-10-28T11:39:16;99783.13;;;19.66;74.01
68169;BME280;54981;50.206;15.978;2022-10-28T11:41:58;99793.50;;;19.72;73.90
68169;BME280;54981;50.206;15.978;2022-10-28T11:52:41;99774.09;;;19.78;72.70
68169;BME280;54981;50.206;15.978;2022-10-28T12:00:59;99765.75;;;19.70;73.84
68169;BME280;54981;50.206;15.978;2022-10-28T12:06:15;99749.28;;;19.85;73.05
68169;BME280;54981;50.206;15.978;2022-10-28T12:14:05;99747.06;;;19.90;73.18
68169;BME280;54981;50.206;15.978;2022-10-28T12:16:41;99747.81;;;19.81;73.02
68169;BME280;54981;50.206;15.978;2022-10-28T12:19:19;99754.69;;;19.85;73.62
68169;BME280;54981;50.206;15.978;2022-10-28T12:24:23;99738.22;;;19.88;71.87
68169;BME280;54981;50.206;15.978;2022-10-28T12:26:53;99730.63;;;19.70;72.88
68169;BME280;54981;50.206;15.978;2022-10-28T12:29:30;99732.53;;;19.34;72.94
68169;BME280;54981;50.206;15.978;2022-10-28T12:32:03;99734.00;;;19.50;73.48
68169;BME280;54981;50.206;15.978;2022-10-28T12:34:52;99734.97;;;19.60;72.90
68169;BME280;54981;50.206;15.978;2022-10-28T12:37:23;99745.78;;;19.60;72.87
68169;BME280;54981;50.206;15.978;2022-10-28T12:39:59;99746.75;;;19.25;73.69
68169;BME280;54981;50.206;15.978;2022-10-28T12:42:32;99731.44;;;19.48;74.27
68169;BME280;54981;50.206;15.978;2022-10-28T12:45:01;99738.31;;;19.64;73.79
68169;BME280;54981;50.206;15.978;2022-10-28T12:47:40;99732.16;;;19.39;73.79
68169;BME280;54981;50.206;15.978;2022-10-28T12:57:43;99736.56;;;18.58;77.28
68169;BME280;54981;50.206;15.978;2022-10-28T13:00:21;99730.56;;;18.90;75.38
68169;BME280;54981;50.206;15.978;2022-10-28T13:02:54;99723.94;;;18.83;76.20
68169;BME280;54981;50.206;15.978;2022-10-28T13:05:28;99725.25;;;18.53;75.84
68169;BME280;54981;50.206;15.978;2022-10-28T13:10:47;99714.59;;;18.51;76.14
68169;BME280;54981;50.206;15.978;2022-10-28T13:16:26;99706.47;;;18.16;77.82
68169;BME280;54981;50.206;15.978;2022-10-28T13:19:24;99702.00;;;17.91;79.01
68169;BME280;54981;50.206;15.978;2022-10-28T13:27:25;99699.91;;;17.45;81.17
68169;BME280;54981;50.206;15.978;2022-10-28T13:29:53;99702.41;;;17.22;82.16
68169;BME280;54981;50.206;15.978;2022-10-28T13:32:29;99704.75;;;17.14;82.27
68169;BME280;54981;50.206;15.978;2022-10-28T13:34:56;99696.59;;;17.16;82.34
68169;BME280;54981;50.206;15.978;2022-10-28T13:37:22;99687.53;;;17.17;82.83
68169;BME280;54981;50.206;15.978;2022-10-28T13:39:50;99706.38;;;17.17;83.57
68169;BME280;54981;50.206;15.978;2022-10-28T13:44:52;99696.47;;;16.92;84.35
68169;BME280;54981;50.206;15.978;2022-10-28T13:47:26;99694.72;;;16.91;84.87
68169;BME280;54981;50.206;15.978;2022-10-28T13:52:34;99696.53;;;16.77;85.33
68169;BME280;54981;50.206;15.978;2022-10-28T13:57:39;99689.03;;;16.82;85.26
68169;BME280;54981;50.206;15.978;2022-10-28T14:03:01;99689.63;;;16.73;85.68
68169;BME280;54981;50.206;15.978;2022-10-28T14:07:59;99688.69;;;16.34;87.03
68169;BME280;54981;50.206;15.978;2022-10-28T14:10:30;99678.47;;;16.39;87.54
68169;BME280;54981;50.206;15.978;2022-10-28T14:13:15;99682.00;;;16.27;87.47
68169;BME280;54981;50.206;15.978;2022-10-28T14:15:43;99678.00;;;16.20;88.61
68169;BME280;54981;50.206;15.978;2022-10-28T14:33:33;99670.63;;;15.82;89.46
68169;BME280;54981;50.206;15.978;2022-10-28T14:50:20;99698.53;;;15.51;91.43
68169;BME280;54981;50.206;15.978;2022-10-28T14:52:46;99693.84;;;15.40;92.06
68169;BME280;54981;50.206;15.978;2022-10-28T14:55:29;99693.28;;;15.35;92.77
68169;BME280;54981;50.206;15.978;2022-10-28T14:58:38;99692.72;;;15.30;92.71
68169;BME280;54981;50.206;15.978;2022-10-28T15:03:46;99672.88;;;15.32;92.95
68169;BME280;54981;50.206;15.978;2022-10-28T15:08:51;99684.75;;;15.00;94.43
68169;BME280;54981;50.206;15.978;2022-10-28T15:11:18;99688.38;;;14.84;94.73
68169;BME280;54981;50.206;15.978;2022-10-28T15:13:47;99696.38;;;14.70;95.44
68169;BME280;54981;50.206;15.978;2022-10-28T15:16:21;99700.84;;;14.69;96.07
68169;BME280;54981;50.206;15.978;2022-10-28T15:18:48;99696.84;;;14.62;96.36
68169;BME280;54981;50.206;15.978;2022-10-28T15:21:18;99695.03;;;14.63;96.93
68169;BME280;54981;50.206;15.978;2022-10-28T15:23:45;99693.84;;;14.37;97.60
68169;BME280;54981;50.206;15.978;2022-10-28T15:26:21;99691.81;;;14.40;97.99
68169;BME280;54981;50.206;15.978;2022-10-28T15:28:47;99695.41;;;14.41;97.84
68169;BME280;54981;50.206;15.978;2022-10-28T15:31:15;99691.69;;;14.27;98.41